Time;durP1;ratioP1;P1;durP2;ratioP2;P2;SDS_P1;SDS_P2;PMS_P1;PMS_P2;Temp;Humidity;BMP_temperature;BMP_pressure;BME280_temperature;BME280_humidity;BME280_pressure;Samples;Min_cycle;Max_cycle;Signal;HPM_P1;HPM_P2
2022/04/13 00:02:05;;;;;;;4.53;3.70;;;11.20;56.30;;;;;;5060886;28;20047;-62
2022/04/13 00:04:30;;;;;;;4.78;3.30;;;11.20;56.40;;;;;;5070719;28;20028;-62
2022/04/13 00:06:57;;;;;;;3.90;2.70;;;11.20;56.40;;;;;;5060103;28;20028;-62
2022/04/13 00:09:23;;;;;;;5.15;2.88;;;11.20;56.40;;;;;;5060646;28;20025;-62
2022/04/13 00:11:50;;;;;;;5.85;3.20;;;11.10;56.40;;;;;;5079743;28;20047;-62
2022/04/13 00:14:16;;;;;;;7.95;3.00;;;11.10;56.50;;;;;;5065406;28;20099;-62
2022/04/13 00:16:42;;;;;;;4.53;2.90;;;11.10;56.50;;;;;;5053956;28;20064;-62
2022/04/13 00:19:08;;;;;;;4.82;3.00;;;11.10;56.50;;;;;;5062318;28;20036;-63
2022/04/13 00:21:33;;;;;;;9.85;3.15;;;11.10;56.60;;;;;;5058945;28;20025;-62
2022/04/13 00:23:59;;;;;;;3.50;2.47;;;11.10;56.60;;;;;;5053323;28;20472;-62
2022/04/13 00:26:25;;;;;;;7.15;2.47;;;11.00;56.60;;;;;;5048631;28;20551;-62
2022/04/13 00:28:50;;;;;;;6.53;3.20;;;11.00;56.60;;;;;;5048278;28;21559;-63
2022/04/13 00:31:16;;;;;;;8.60;3.30;;;11.00;56.60;;;;;;5049657;28;20040;-62
2022/04/13 00:33:42;;;;;;;6.18;3.58;;;11.00;56.80;;;;;;5068875;28;20032;-62
2022/04/13 00:36:08;;;;;;;6.88;4.00;;;11.00;57.40;;;;;;5080709;28;20032;-62
2022/04/13 00:38:33;;;;;;;8.23;4.50;;;11.00;56.90;;;;;;5049998;28;20057;-62
2022/04/13 00:40:59;;;;;;;11.90;5.10;;;11.00;57.00;;;;;;5053475;28;20120;-62
2022/04/13 00:43:25;;;;;;;8.63;4.93;;;10.90;56.90;;;;;;5028551;28;20061;-62
2022/04/13 00:45:51;;;;;;;11.82;5.85;;;10.90;57.00;;;;;;5049153;28;20231;-63
2022/04/13 00:48:39;;;;;;;11.55;5.55;;;11.00;57.20;;;;;;5049380;28;20033;-62
2022/04/13 00:51:06;;;;;;;12.55;5.97;;;10.90;58.00;;;;;;5061277;28;20433;-62
2022/04/13 00:53:35;;;;;;;12.15;5.65;;;10.90;57.30;;;;;;5072596;28;20029;-62
2022/04/13 00:56:03;;;;;;;10.90;4.68;;;10.90;57.30;;;;;;5047087;28;20188;-63
2022/04/13 00:58:32;;;;;;;7.43;4.60;;;10.90;57.20;;;;;;5073551;28;20029;-62
2022/04/13 01:01:02;;;;;;;10.70;4.57;;;10.90;57.20;;;;;;5064769;28;20527;-62
2022/04/13 01:03:29;;;;;;;11.00;4.20;;;10.90;57.90;;;;;;5066963;28;20110;-63
2022/04/13 01:05:55;;;;;;;10.10;3.92;;;11.00;57.30;;;;;;5067664;28;20359;-63
2022/04/13 01:08:21;;;;;;;6.93;3.30;;;11.00;57.40;;;;;;5062901;28;20146;-63
2022/04/13 01:10:49;;;;;;;18.88;3.30;;;11.00;57.50;;;;;;5076069;28;20055;-63
2022/04/13 01:13:16;;;;;;;7.32;3.28;;;11.00;57.50;;;;;;5063133;28;20082;-62
2022/04/13 01:15:43;;;;;;;6.13;3.03;;;11.00;57.40;;;;;;5071295;28;20028;-62
2022/04/13 01:18:09;;;;;;;4.72;3.13;;;10.90;57.40;;;;;;5056834;28;20056;-62
2022/04/13 01:20:39;;;;;;;7.40;3.40;;;11.00;57.60;;;;;;5067883;28;20025;-62
2022/04/13 01:23:06;;;;;;;5.13;2.47;;;11.00;57.60;;;;;;5064450;28;20041;-62
2022/04/13 01:25:32;;;;;;;8.52;2.85;;;11.00;57.70;;;;;;5079641;28;20021;-62
2022/04/13 01:27:57;;;;;;;7.78;2.65;;;11.00;57.60;;;;;;5066637;28;20055;-62
2022/04/13 01:30:24;;;;;;;11.57;2.80;;;11.00;57.60;;;;;;5043785;28;20026;-63
2022/04/13 01:32:53;;;;;;;6.13;2.50;;;11.00;57.60;;;;;;5065257;28;20024;-62
2022/04/13 01:35:19;;;;;;;7.50;2.88;;;11.00;58.00;;;;;;5081098;28;20025;-63
2022/04/13 01:37:45;;;;;;;5.38;3.03;;;11.00;57.90;;;;;;5052217;28;20489;-62
2022/04/13 01:40:11;;;;;;;6.43;2.58;;;11.00;58.10;;;;;;5080787;28;20032;-62
2022/04/13 01:42:39;;;;;;;5.22;2.70;;;11.00;58.10;;;;;;5062446;28;20048;-63
2022/04/13 01:45:05;;;;;;;3.10;2.50;;;11.00;58.30;;;;;;5082440;28;20070;-63
2022/04/13 01:47:31;;;;;;;5.30;3.00;;;11.00;58.20;;;;;;5070031;28;20025;-63
2022/04/13 01:49:58;;;;;;;7.50;3.00;;;11.00;58.20;;;;;;5057680;28;20060;-62
2022/04/13 01:52:24;;;;;;;8.55;2.90;;;11.00;58.30;;;;;;5065595;28;20092;-62
2022/04/13 01:54:49;;;;;;;5.70;2.75;;;11.00;58.30;;;;;;5053721;28;20024;-61
2022/04/13 01:57:15;;;;;;;6.03;3.17;;;11.00;58.30;;;;;;5063188;28;20059;-62
2022/04/13 01:59:40;;;;;;;10.63;3.10;;;11.00;58.30;;;;;;5063269;28;20091;-62
2022/04/13 02:02:06;;;;;;;4.68;2.75;;;11.00;58.40;;;;;;5064564;28;20036;-61
2022/04/13 02:04:32;;;;;;;5.82;2.90;;;11.10;58.40;;;;;;5065978;28;20029;-62
2022/04/13 02:06:59;;;;;;;4.65;2.38;;;11.10;58.50;;;;;;5050369;28;20120;-61
2022/04/13 02:09:25;;;;;;;5.43;2.67;;;11.00;59.10;;;;;;5054662;28;20040;-63
2022/04/13 02:11:51;;;;;;;3.55;2.40;;;11.10;58.60;;;;;;5072210;28;20025;-62
2022/04/13 02:14:17;;;;;;;4.88;2.60;;;11.10;58.60;;;;;;5071438;28;20021;-62
2022/04/13 02:16:43;;;;;;;4.85;2.25;;;11.10;58.60;;;;;;5063036;28;20025;-62
2022/04/13 02:19:11;;;;;;;7.25;2.72;;;11.10;58.60;;;;;;5064213;28;20519;-62
2022/04/13 02:21:37;;;;;;;4.80;2.50;;;11.10;58.60;;;;;;5055912;28;20032;-62
2022/04/13 02:24:03;;;;;;;5.88;3.10;;;11.10;58.60;;;;;;5046799;28;20061;-62
2022/04/13 02:26:29;;;;;;;5.63;2.72;;;11.10;58.60;;;;;;5050464;28;20026;-61
2022/04/13 02:28:55;;;;;;;5.55;2.70;;;11.10;58.50;;;;;;5051461;28;20553;-63
2022/04/13 02:31:21;;;;;;;6.55;2.53;;;11.10;58.40;;;;;;5047677;28;20059;-62
2022/04/13 02:33:47;;;;;;;10.02;2.40;;;11.10;58.40;;;;;;5052174;28;20029;-62
2022/04/13 02:36:13;;;;;;;3.97;2.47;;;11.10;58.50;;;;;;5050541;28;20029;-62
2022/04/13 02:38:39;;;;;;;3.72;2.22;;;11.10;58.50;;;;;;5054361;28;20049;-61
2022/04/13 02:41:05;;;;;;;3.83;2.65;;;11.10;58.60;;;;;;5045078;28;20044;-62
2022/04/13 02:43:31;;;;;;;4.50;2.10;;;11.10;58.70;;;;;;5047634;28;20042;-62
2022/04/13 02:45:57;;;;;;;3.95;2.50;;;11.10;58.70;;;;;;5052862;28;20730;-62
2022/04/13 02:48:23;;;;;;;4.07;2.17;;;11.10;58.80;;;;;;5049078;28;20029;-62
2022/04/13 02:50:48;;;;;;;3.88;2.42;;;11.10;58.80;;;;;;5061174;28;20051;-63
2022/04/13 02:53:15;;;;;;;5.03;2.53;;;11.10;58.80;;;;;;5065727;28;20108;-62
2022/04/13 02:55:41;;;;;;;4.13;2.50;;;11.00;58.90;;;;;;5075496;28;20051;-62
2022/04/13 02:58:07;;;;;;;5.55;2.40;;;11.10;59.10;;;;;;5071513;28;20084;-63
2022/04/13 03:00:32;;;;;;;7.85;2.33;;;11.10;59.00;;;;;;5048426;28;20021;-62
2022/04/13 03:02:58;;;;;;;3.13;2.17;;;11.10;59.00;;;;;;5042156;28;20571;-62
2022/04/13 03:05:24;;;;;;;4.72;2.67;;;11.10;58.90;;;;;;5074695;28;20064;-62
2022/04/13 03:07:50;;;;;;;6.53;2.33;;;11.10;58.70;;;;;;5055937;28;20025;-62
2022/04/13 03:10:15;;;;;;;4.25;2.50;;;11.00;58.70;;;;;;5066173;28;20113;-62
2022/04/13 03:12:43;;;;;;;3.17;2.25;;;11.10;58.80;;;;;;5055526;28;20028;-63
2022/04/13 03:15:10;;;;;;;3.78;2.30;;;11.00;59.00;;;;;;5083305;28;20024;-61
2022/04/13 03:17:36;;;;;;;6.03;2.60;;;11.00;59.00;;;;;;5064758;28;20513;-63
2022/04/13 03:20:03;;;;;;;7.18;2.97;;;11.00;58.90;;;;;;5043976;28;20040;-63
2022/04/13 03:22:28;;;;;;;4.93;2.80;;;11.00;58.90;;;;;;5046286;28;20037;-63
2022/04/13 03:24:54;;;;;;;6.18;2.58;;;11.00;59.00;;;;;;5072909;28;20040;-62
2022/04/13 03:27:20;;;;;;;2.92;2.40;;;11.00;59.60;;;;;;5066378;28;20025;-62
2022/04/13 03:29:46;;;;;;;4.03;2.63;;;11.00;59.00;;;;;;5069968;28;20028;-62
2022/04/13 03:32:11;;;;;;;3.97;2.47;;;11.00;59.00;;;;;;5069384;28;20032;-63
2022/04/13 03:34:37;;;;;;;5.80;2.80;;;11.00;59.00;;;;;;5078039;28;20048;-62
2022/04/13 03:37:03;;;;;;;5.22;2.92;;;11.00;59.20;;;;;;5059535;28;20519;-62
2022/04/13 03:39:29;;;;;;;4.90;2.67;;;10.90;59.10;;;;;;5048888;28;20033;-62
2022/04/13 03:41:55;;;;;;;4.25;2.33;;;10.90;59.00;;;;;;5069412;28;20047;-62
2022/04/13 03:44:21;;;;;;;6.47;2.50;;;10.90;59.10;;;;;;5073085;28;20033;-61
2022/04/13 03:46:47;;;;;;;4.78;2.10;;;10.90;59.10;;;;;;5061603;28;20485;-63
2022/04/13 03:49:13;;;;;;;3.55;1.77;;;10.90;59.00;;;;;;5077380;28;20051;-63
2022/04/13 03:51:38;;;;;;;7.25;2.10;;;10.90;59.00;;;;;;5065794;28;20093;-62
2022/04/13 03:54:04;;;;;;;3.50;2.40;;;10.80;59.00;;;;;;5081975;28;20028;-62
2022/04/13 03:56:30;;;;;;;4.25;2.30;;;10.80;59.00;;;;;;5083033;28;20097;-62
2022/04/13 03:59:00;;;;;;;9.25;2.38;;;10.80;59.00;;;;;;5079103;28;20037;-63
2022/04/13 04:01:26;;;;;;;3.03;2.10;;;10.80;59.10;;;;;;5067977;28;20047;-62
2022/04/13 04:03:52;;;;;;;4.75;2.38;;;10.70;59.00;;;;;;5067292;28;20048;-63
2022/04/13 04:06:18;;;;;;;3.97;2.47;;;10.70;59.10;;;;;;5071207;28;20025;-62
2022/04/13 04:08:44;;;;;;;3.80;2.40;;;10.60;59.20;;;;;;5062915;28;20033;-62
2022/04/13 04:11:09;;;;;;;5.45;2.72;;;10.60;59.20;;;;;;5062586;28;20036;-62
2022/04/13 04:13:35;;;;;;;5.03;3.70;;;10.50;59.90;;;;;;5064301;28;20021;-61
2022/04/13 04:16:01;;;;;;;6.57;3.50;;;10.50;59.20;;;;;;5064922;28;20029;-61
2022/04/13 04:18:27;;;;;;;5.55;3.20;;;10.40;59.20;;;;;;5066151;28;20083;-62
2022/04/13 04:20:53;;;;;;;3.28;2.65;;;10.40;59.10;;;;;;5062835;28;20040;-62
2022/04/13 04:23:19;;;;;;;3.60;2.38;;;10.30;59.00;;;;;;5058177;28;20033;-62
2022/04/13 04:25:45;;;;;;;5.40;2.05;;;10.30;58.90;;;;;;5066322;28;20039;-63
2022/04/13 04:28:11;;;;;;;2.50;2.13;;;10.20;58.70;;;;;;5057426;28;20032;-61
2022/04/13 04:30:40;;;;;;;3.38;2.22;;;10.20;58.70;;;;;;5044149;28;20016;-61
2022/04/13 04:33:06;;;;;;;3.33;2.30;;;10.10;58.80;;;;;;5077238;28;20029;-61
2022/04/13 04:35:32;;;;;;;8.52;2.67;;;10.10;58.80;;;;;;5051484;28;20098;-61
2022/04/13 04:37:59;;;;;;;5.47;2.20;;;10.10;59.00;;;;;;5049145;28;20057;-61
2022/04/13 04:40:26;;;;;;;6.43;3.17;;;10.00;59.10;;;;;;5049781;28;20037;-63
2022/04/13 04:42:52;;;;;;;8.73;2.30;;;10.00;59.20;;;;;;5050215;28;20044;-62
2022/04/13 04:45:19;;;;;;;2.47;2.00;;;9.90;59.20;;;;;;5053188;28;20021;-61
2022/04/13 04:47:46;;;;;;;7.43;2.25;;;9.90;59.40;;;;;;5053768;28;20082;-62
2022/04/13 04:50:12;;;;;;;2.95;2.00;;;9.90;59.40;;;;;;5065322;28;20478;-62
2022/04/13 04:52:45;;;;;;;9.85;2.15;;;9.80;59.40;;;;;;5064173;28;20017;-62
2022/04/13 04:55:12;;;;;;;4.78;2.22;;;9.80;59.60;;;;;;5067009;28;20025;-62
2022/04/13 04:57:38;;;;;;;4.95;2.00;;;9.80;59.40;;;;;;5083082;28;20028;-61
2022/04/13 05:00:10;;;;;;;10.38;5.55;;;9.80;59.40;;;;;;5061734;28;20025;-62
2022/04/13 05:02:37;;;;;;;7.35;3.83;;;9.70;59.60;;;;;;5047898;28;20075;-61
2022/04/13 05:05:06;;;;;;;6.10;2.55;;;9.70;59.40;;;;;;5063515;28;20021;-63
2022/04/13 05:07:33;;;;;;;7.40;2.70;;;9.70;59.50;;;;;;5062982;28;20024;-61
2022/04/13 05:09:59;;;;;;;5.25;2.20;;;9.70;59.60;;;;;;5063319;28;20079;-62
2022/04/13 05:12:25;;;;;;;4.25;2.17;;;9.70;59.80;;;;;;5064381;28;20040;-62
2022/04/13 05:14:54;;;;;;;4.97;2.03;;;9.70;59.90;;;;;;5046398;28;20024;-61
2022/04/13 05:17:20;;;;;;;4.93;2.33;;;9.70;60.00;;;;;;5062687;28;20083;-61
2022/04/13 05:19:46;;;;;;;5.63;1.90;;;9.70;60.20;;;;;;5065475;28;20085;-61
2022/04/13 05:22:12;;;;;;;2.88;1.98;;;9.70;60.20;;;;;;5066202;28;20056;-61
2022/04/13 05:24:37;;;;;;;3.03;1.73;;;9.70;60.20;;;;;;5057606;28;20029;-61
2022/04/13 05:27:03;;;;;;;7.28;1.77;;;9.70;60.20;;;;;;5059958;28;20035;-61
2022/04/13 05:29:29;;;;;;;3.95;1.80;;;9.70;60.20;;;;;;5061470;28;20028;-61
2022/04/13 05:31:54;;;;;;;2.20;1.92;;;9.70;60.20;;;;;;5070470;28;20016;-61
2022/04/13 05:34:20;;;;;;;5.13;1.90;;;9.70;60.20;;;;;;5069885;28;20041;-61
2022/04/13 05:36:46;;;;;;;4.25;2.42;;;9.80;60.30;;;;;;5072832;28;20041;-61
2022/04/13 05:39:11;;;;;;;4.82;2.38;;;9.80;60.30;;;;;;5064102;28;20079;-61
2022/04/13 05:41:37;;;;;;;6.07;2.75;;;9.90;60.30;;;;;;5060860;28;20029;-61
2022/04/13 05:44:03;;;;;;;6.15;2.50;;;9.90;60.40;;;;;;5058558;28;20064;-61
2022/04/13 05:46:28;;;;;;;5.82;2.22;;;10.00;60.50;;;;;;5060747;28;20028;-61
2022/04/13 05:48:54;;;;;;;3.80;2.38;;;10.00;60.50;;;;;;5059691;28;20117;-62
2022/04/13 05:51:20;;;;;;;8.82;2.90;;;10.10;60.40;;;;;;5064580;28;20025;-61
2022/04/13 05:53:45;;;;;;;6.38;2.33;;;10.20;60.30;;;;;;5064136;28;20052;-62
2022/04/13 05:56:11;;;;;;;6.93;2.47;;;10.30;60.30;;;;;;5066822;28;20033;-62
2022/04/13 05:58:36;;;;;;;3.45;2.45;;;10.40;60.40;;;;;;5059714;28;20540;-61
2022/04/13 06:01:02;;;;;;;5.30;2.63;;;10.50;60.50;;;;;;5062209;28;20021;-61
2022/04/13 06:03:28;;;;;;;4.80;2.20;;;10.60;60.50;;;;;;5055977;28;20060;-62
2022/04/13 06:05:53;;;;;;;3.88;2.38;;;10.70;60.40;;;;;;5046415;28;20032;-61
2022/04/13 06:08:19;;;;;;;4.75;2.53;;;10.80;60.30;;;;;;5050103;28;20025;-63
2022/04/13 06:10:45;;;;;;;4.75;2.50;;;11.00;60.20;;;;;;5049043;28;20032;-62
2022/04/13 06:13:11;;;;;;;4.93;2.47;;;11.10;60.10;;;;;;5050598;28;20228;-61
2022/04/13 06:15:36;;;;;;;6.95;2.83;;;11.20;60.00;;;;;;5051120;28;20052;-62
2022/04/13 06:18:03;;;;;;;6.82;2.60;;;11.30;59.90;;;;;;5047585;28;20025;-61
2022/04/13 06:20:28;;;;;;;4.70;2.45;;;11.50;59.70;;;;;;5058479;28;20101;-62
2022/04/13 06:22:54;;;;;;;6.75;2.88;;;11.60;59.60;;;;;;5069499;28;20063;-62
2022/04/13 06:25:20;;;;;;;7.15;2.63;;;11.70;59.40;;;;;;5054393;28;20486;-62
2022/04/13 06:27:46;;;;;;;10.27;2.65;;;11.80;59.30;;;;;;5051512;28;20044;-61
2022/04/13 06:30:13;;;;;;;6.93;2.80;;;12.00;59.90;;;;;;5050752;28;20029;-62
2022/04/13 06:32:44;;;;;;;5.57;2.42;;;12.10;59.10;;;;;;5053730;28;20033;-61
2022/04/13 06:35:12;;;;;;;6.95;2.55;;;12.20;58.90;;;;;;5047762;28;20025;-62
2022/04/13 06:37:43;;;;;;;9.20;3.10;;;12.40;58.80;;;;;;5050282;28;20073;-62
2022/04/13 06:40:09;;;;;;;5.38;2.92;;;12.50;58.40;;;;;;5055160;28;20033;-61
2022/04/13 06:42:39;;;;;;;9.25;3.20;;;12.70;58.30;;;;;;5048774;28;20052;-61
2022/04/13 06:45:10;;;;;;;9.23;2.88;;;12.80;58.20;;;;;;5050016;28;20040;-61
2022/04/13 06:47:36;;;;;;;7.65;3.08;;;13.00;58.20;;;;;;5047886;28;20481;-62
2022/04/13 06:50:03;;;;;;;10.82;2.88;;;13.10;58.10;;;;;;5051219;28;20234;-62
2022/04/13 06:52:33;;;;;;;13.50;3.20;;;13.20;58.00;;;;;;5062911;28;20028;-61
2022/04/13 06:54:58;;;;;;;9.88;2.85;;;13.40;57.80;;;;;;5050416;28;20028;-62
2022/04/13 06:57:24;;;;;;;9.95;2.88;;;13.50;57.60;;;;;;5063979;28;20060;-61
2022/04/13 06:59:50;;;;;;;5.22;2.95;;;13.70;57.30;;;;;;5065367;28;20029;-62
2022/04/13 07:02:15;;;;;;;8.63;3.00;;;13.80;57.00;;;;;;5058838;28;20112;-62
2022/04/13 07:04:41;;;;;;;5.45;3.63;;;13.90;56.60;;;;;;5068695;28;20044;-62
2022/04/13 07:07:07;;;;;;;7.25;4.63;;;14.10;56.00;;;;;;5065394;28;20017;-62
2022/04/13 07:09:33;;;;;;;14.23;5.60;;;14.30;55.50;;;;;;5067279;28;20036;-62
2022/04/13 07:11:59;;;;;;;12.38;5.13;;;14.40;55.00;;;;;;5071973;28;20039;-61
2022/04/13 07:14:25;;;;;;;9.60;4.40;;;14.50;54.80;;;;;;5066595;28;20029;-62
2022/04/13 07:16:51;;;;;;;14.90;4.90;;;14.70;54.40;;;;;;5065787;28;20033;-62
2022/04/13 07:19:16;;;;;;;10.18;4.80;;;14.80;54.20;;;;;;5065786;28;20025;-62
2022/04/13 07:21:43;;;;;;;8.23;4.35;;;14.90;53.80;;;;;;5054736;28;20067;-62
2022/04/13 07:24:10;;;;;;;11.65;5.18;;;15.00;53.50;;;;;;5051482;28;20037;-62
2022/04/13 07:26:36;;;;;;;8.90;4.97;;;15.10;53.50;;;;;;5055794;28;20055;-61
2022/04/13 07:29:02;;;;;;;10.32;5.45;;;15.20;53.20;;;;;;5066409;28;20025;-61
2022/04/13 07:31:28;;;;;;;14.25;5.55;;;15.40;53.00;;;;;;5049145;28;20036;-61
2022/04/13 07:33:55;;;;;;;10.05;4.57;;;15.50;52.90;;;;;;5066893;28;20027;-62
2022/04/13 07:36:20;;;;;;;10.43;4.70;;;15.70;52.80;;;;;;5061606;28;20040;-61
2022/04/13 07:38:46;;;;;;;10.82;5.47;;;15.80;52.70;;;;;;5057506;28;20029;-62
2022/04/13 07:41:12;;;;;;;14.52;5.55;;;16.00;52.10;;;;;;5052375;28;20037;-61
2022/04/13 07:43:37;;;;;;;13.43;6.78;;;16.10;51.70;;;;;;5055298;28;20047;-62
2022/04/13 07:46:03;;;;;;;12.60;6.95;;;16.20;51.20;;;;;;5037398;28;20166;-62
2022/04/13 07:48:30;;;;;;;14.52;6.97;;;16.40;50.90;;;;;;5050125;28;20037;-62
2022/04/13 07:50:55;;;;;;;12.50;6.15;;;16.50;50.60;;;;;;5053636;28;20040;-61
2022/04/13 07:53:21;;;;;;;12.70;5.93;;;16.60;50.40;;;;;;5050123;28;20516;-62
2022/04/13 07:55:47;;;;;;;15.45;6.03;;;16.80;50.10;;;;;;5053349;28;20512;-62
2022/04/13 07:58:12;;;;;;;9.30;5.80;;;17.00;50.80;;;;;;5052759;28;20078;-62
2022/04/13 08:00:38;;;;;;;12.43;5.82;;;17.20;49.90;;;;;;5053239;28;20029;-62
2022/04/13 08:03:05;;;;;;;9.65;5.93;;;17.30;49.30;;;;;;5033731;28;20414;-62
2022/04/13 08:05:32;;;;;;;11.93;5.53;;;17.50;48.90;;;;;;5053757;28;20029;-62
2022/04/13 08:07:57;;;;;;;11.13;5.45;;;17.60;48.80;;;;;;5073524;28;20143;-62
2022/04/13 08:10:23;;;;;;;13.25;6.13;;;17.80;48.50;;;;;;5067504;28;20059;-62
2022/04/13 08:12:49;;;;;;;13.23;6.68;;;17.90;48.10;;;;;;5070228;28;20068;-62
2022/04/13 08:15:15;;;;;;;10.25;6.18;;;18.00;47.70;;;;;;5065619;28;20036;-62
2022/04/13 08:17:41;;;;;;;10.23;6.07;;;18.20;47.50;;;;;;5068469;28;20025;-62
2022/04/13 08:20:12;;;;;;;10.88;6.60;;;18.40;47.20;;;;;;5069635;28;20073;-62
2022/04/13 08:22:38;;;;;;;10.05;6.20;;;18.50;46.30;;;;;;5065017;28;20037;-61
2022/04/13 08:25:04;;;;;;;9.45;5.97;;;18.60;46.60;;;;;;5063369;28;20032;-61
2022/04/13 08:27:30;;;;;;;12.63;6.22;;;18.70;46.80;;;;;;5066500;28;20021;-62
2022/04/13 08:29:55;;;;;;;11.90;6.28;;;18.80;46.20;;;;;;5072140;28;20033;-62
2022/04/13 08:32:21;;;;;;;12.82;6.38;;;18.90;46.40;;;;;;5067007;28;20119;-62
2022/04/13 08:34:51;;;;;;;12.80;6.47;;;19.00;46.20;;;;;;5061682;28;20524;-63
2022/04/13 08:37:20;;;;;;;21.58;12.38;;;19.10;45.50;;;;;;5055246;28;20092;-62
2022/04/13 08:39:46;;;;;;;12.95;6.68;;;19.20;45.70;;;;;;5057897;28;20485;-63
2022/04/13 08:42:46;;;;;;;14.38;6.18;;;19.40;45.30;;;;;;5067663;28;20041;-62
2022/04/13 08:45:23;;;;;;;13.15;6.30;;;19.50;43.70;;;;;;5065247;28;20045;-62
2022/04/13 08:47:56;;;;;;;13.90;6.57;;;19.60;44.40;;;;;;5059108;28;20040;-63
2022/04/13 08:50:27;;;;;;;11.07;6.40;;;19.70;44.50;;;;;;5060410;28;20061;-62
2022/04/13 08:52:59;;;;;;;10.18;6.30;;;19.80;44.30;;;;;;5049189;28;20208;-62
2022/04/13 08:55:27;;;;;;;14.75;6.88;;;19.80;44.20;;;;;;5058994;28;20396;-62
2022/04/13 08:58:14;;;;;;;13.15;7.07;;;19.90;44.20;;;;;;5065704;28;20103;-62
2022/04/13 09:00:45;;;;;;;13.27;6.35;;;20.00;43.20;;;;;;5036697;28;20094;-63
2022/04/13 09:03:43;;;;;;;12.63;6.07;;;20.00;43.80;;;;;;5063825;28;20041;-62
2022/04/13 09:06:10;;;;;;;11.15;6.90;;;20.20;43.30;;;;;;5061957;28;20022;-62
2022/04/13 09:08:43;;;;;;;12.75;6.75;;;20.30;43.80;;;;;;5072378;28;20025;-62
2022/04/13 09:11:09;;;;;;;14.85;7.38;;;20.30;43.30;;;;;;5059103;28;20047;-62
2022/04/13 09:13:35;;;;;;;13.60;6.97;;;20.50;43.60;;;;;;5071193;28;20053;-63
2022/04/13 09:16:03;;;;;;;12.57;6.63;;;20.50;43.30;;;;;;5048592;28;20433;-62
2022/04/13 09:18:29;;;;;;;13.90;7.15;;;20.60;42.80;;;;;;5079647;28;20021;-63
2022/04/13 09:20:55;;;;;;;10.65;6.78;;;20.70;42.50;;;;;;5068892;28;20052;-62
2022/04/13 09:23:21;;;;;;;12.40;7.18;;;20.80;43.10;;;;;;5079067;28;20051;-62
2022/04/13 09:25:55;;;;;;;10.27;6.88;;;20.90;42.20;;;;;;5078507;28;20048;-62
2022/04/13 09:28:21;;;;;;;15.07;7.22;;;20.90;42.10;;;;;;5047109;28;20061;-63
2022/04/13 09:30:47;;;;;;;13.00;7.65;;;21.00;42.60;;;;;;5064031;28;20462;-62
2022/04/13 09:33:12;;;;;;;14.98;7.25;;;21.10;42.20;;;;;;5052940;28;20080;-62
2022/04/13 09:35:38;;;;;;;13.30;7.45;;;21.20;42.20;;;;;;5065045;28;20025;-63
2022/04/13 09:38:06;;;;;;;12.38;7.40;;;21.40;42.00;;;;;;5071562;28;20100;-63
2022/04/13 09:40:41;;;;;;;11.10;7.07;;;21.40;42.40;;;;;;5071810;28;20032;-62
2022/04/13 09:43:11;;;;;;;15.15;7.63;;;21.50;41.70;;;;;;5064453;28;20056;-63
2022/04/13 09:45:45;;;;;;;13.75;8.02;;;21.60;41.70;;;;;;5072551;28;20029;-62
2022/04/13 09:48:16;;;;;;;13.30;8.00;;;21.70;41.20;;;;;;5061983;28;20600;-63
2022/04/13 09:50:44;;;;;;;14.40;8.05;;;21.90;41.60;;;;;;5041599;28;20037;-62
2022/04/13 09:53:10;;;;;;;14.50;8.05;;;22.00;41.20;;;;;;5062989;28;20017;-62
2022/04/13 09:55:44;;;;;;;15.13;8.30;;;22.20;41.00;;;;;;5070980;28;20029;-63
2022/04/13 09:58:15;;;;;;;12.13;7.50;;;22.30;40.40;;;;;;5062429;28;20036;-64
2022/04/13 10:00:42;;;;;;;15.75;7.70;;;22.40;40.50;;;;;;5048591;28;20477;-63
2022/04/13 10:03:16;;;;;;;12.20;8.07;;;22.60;40.30;;;;;;5065053;28;20036;-63
2022/04/13 10:05:53;;;;;;;11.88;7.43;;;22.70;38.80;;;;;;5065940;28;20036;-62
2022/04/13 10:08:24;;;;;;;12.98;7.60;;;22.80;39.50;;;;;;5056686;28;20024;-63
2022/04/13 10:10:53;;;;;;;11.40;7.18;;;22.80;39.10;;;;;;5058733;28;20029;-63
2022/04/13 10:13:36;;;;;;;13.07;7.43;;;22.90;39.00;;;;;;5059149;28;20033;-62
2022/04/13 10:16:12;;;;;;;13.60;8.55;;;23.00;38.70;;;;;;5073616;28;20033;-62
2022/04/13 10:18:50;;;;;;;11.95;7.25;;;23.10;39.00;;;;;;5058418;28;20025;-62
2022/04/13 10:21:40;;;;;;;12.32;6.95;;;23.20;38.80;;;;;;5066750;28;20056;-62
2022/04/13 10:24:23;;;;;;;15.73;6.72;;;23.20;37.90;;;;;;5048460;28;20021;-61
2022/04/13 10:27:12;;;;;;;12.77;7.78;;;23.40;39.20;;;;;;5075860;28;20718;-62
2022/04/13 10:29:43;;;;;;;12.85;7.50;;;23.60;37.60;;;;;;5045546;28;20028;-62
2022/04/13 10:32:23;;;;;;;13.13;7.30;;;23.70;37.30;;;;;;5060733;28;20025;-62
2022/04/13 10:34:52;;;;;;;10.90;6.65;;;23.70;37.70;;;;;;5053137;28;20087;-62
2022/04/13 10:37:19;;;;;;;14.77;7.38;;;23.80;38.10;;;;;;5069418;28;20090;-62
2022/04/13 10:39:46;;;;;;;13.38;6.82;;;23.90;37.80;;;;;;5070655;28;20493;-63
2022/04/13 10:42:13;;;;;;;13.32;7.65;;;24.00;38.00;;;;;;5064795;28;20044;-62
2022/04/13 10:44:43;;;;;;;13.05;7.00;;;24.00;37.10;;;;;;5069616;28;20048;-62
2022/04/13 10:47:13;;;;;;;15.38;6.63;;;24.10;37.50;;;;;;5067080;28;20111;-62
2022/04/13 10:49:50;;;;;;;10.57;6.35;;;24.10;38.00;;;;;;5061612;28;20034;-62
2022/04/13 10:52:28;;;;;;;11.95;7.30;;;24.20;36.30;;;;;;5055280;28;20033;-63
2022/04/13 10:55:21;;;;;;;11.02;6.38;;;24.30;36.40;;;;;;5055999;28;20036;-62
2022/04/13 10:57:52;;;;;;;13.98;6.90;;;24.40;36.00;;;;;;5055281;28;20033;-63
2022/04/13 11:00:19;;;;;;;10.65;6.90;;;24.40;36.70;;;;;;5058679;28;20144;-63
2022/04/13 11:02:58;;;;;;;12.48;6.75;;;24.50;36.90;;;;;;5067519;28;20037;-62
2022/04/13 11:05:25;;;;;;;10.75;6.45;;;24.60;35.90;;;;;;5055023;28;20025;-63
2022/04/13 11:08:16;;;;;;;12.75;6.75;;;24.70;36.80;;;;;;5068016;28;20025;-62
2022/04/13 11:10:47;;;;;;;16.35;7.05;;;24.80;36.70;;;;;;5054695;28;20044;-62
2022/04/13 11:13:14;;;;;;;13.30;6.82;;;24.90;36.70;;;;;;5060961;28;20025;-62
2022/04/13 11:15:45;;;;;;;10.88;6.97;;;25.00;36.60;;;;;;5064740;28;20036;-62
2022/04/13 11:18:13;;;;;;;10.93;6.30;;;25.00;36.50;;;;;;5062916;28;20036;-63
2022/04/13 11:20:58;;;;;;;13.32;6.72;;;25.10;36.40;;;;;;5064576;28;20017;-63
2022/04/13 11:23:23;;;;;;;;;;;25.20;35.70;;;;;;5068547;28;20044;-62
2022/04/13 11:25:51;;;;;;;10.02;6.13;;;25.30;36.90;;;;;;5065738;28;19913;-62
2022/04/13 11:28:25;;;;;;;11.40;6.43;;;25.40;36.50;;;;;;5063881;28;20059;-62
2022/04/13 11:31:00;;;;;;;18.13;6.07;;;25.50;35.60;;;;;;5063537;28;20074;-63
2022/04/13 11:33:58;;;;;;;11.50;5.82;;;25.60;34.90;;;;;;5064223;28;20025;-62
2022/04/13 11:36:28;;;;;;;7.00;4.40;;;25.70;35.70;;;;;;5010914;28;20526;-63
2022/04/13 11:38:54;;;;;;;7.75;4.82;;;25.80;35.30;;;;;;5004830;28;20041;-63
2022/04/13 11:41:21;;;;;;;8.15;4.60;;;26.00;35.60;;;;;;5003061;28;20111;-62
2022/04/13 11:43:47;;;;;;;8.98;5.28;;;26.10;34.70;;;;;;5003794;28;20042;-63
2022/04/13 11:46:36;;;;;;;10.80;5.65;;;26.20;35.00;;;;;;5008668;28;20046;-62
2022/04/13 11:49:02;;;;;;;9.43;5.80;;;26.30;35.10;;;;;;5001740;28;20403;-62
2022/04/13 11:51:29;;;;;;;11.27;5.47;;;26.50;35.30;;;;;;4997549;28;20038;-63
2022/04/13 11:54:04;;;;;;;11.98;5.93;;;26.60;35.00;;;;;;5021879;28;20204;-62
2022/04/13 11:56:48;;;;;;;9.63;5.78;;;26.70;34.80;;;;;;5003955;28;20068;-63
2022/04/13 11:59:17;;;;;;;;;;;26.90;34.00;;;;;;5016469;28;20038;-63
2022/04/13 12:01:55;;;;;;;7.78;4.55;;;27.00;35.70;;;;;;5013339;28;20330;-61
2022/04/13 12:04:24;;;;;;;10.20;5.72;;;27.10;34.40;;;;;;5026047;28;20056;-63
2022/04/13 12:06:51;;;;;;;11.13;5.78;;;27.20;34.20;;;;;;5023687;28;20100;-62
2022/04/13 12:09:16;;;;;;;11.07;5.70;;;27.30;34.20;;;;;;5025009;28;20649;-63
2022/04/13 12:11:46;;;;;;;10.15;6.20;;;27.40;34.50;;;;;;5025500;28;20068;-63
2022/04/13 12:14:28;;;;;;;9.98;5.88;;;27.50;34.00;;;;;;5054127;28;20512;-63
2022/04/13 12:16:59;;;;;;;13.60;6.03;;;27.60;33.10;;;;;;5063700;28;20021;-63
2022/04/13 12:19:36;;;;;;;11.70;6.45;;;27.60;33.80;;;;;;5058051;28;20025;-62
2022/04/13 12:22:13;;;;;;;9.50;5.55;;;27.70;33.60;;;;;;5058796;28;20043;-62
2022/04/13 12:24:55;;;;;;;9.38;5.28;;;27.80;32.90;;;;;;5056303;28;20039;-62
2022/04/13 12:27:21;;;;;;;9.98;5.82;;;27.90;32.80;;;;;;5059939;28;20544;-63
2022/04/13 12:29:47;;;;;;;9.60;5.15;;;27.90;32.90;;;;;;5049775;28;20025;-63
2022/04/13 12:32:18;;;;;;;11.35;5.05;;;28.00;32.50;;;;;;5063133;28;20045;-62
2022/04/13 12:34:44;;;;;;;8.82;5.47;;;28.00;32.10;;;;;;5052050;28;20013;-63
2022/04/13 12:37:11;;;;;;;11.20;4.95;;;28.10;32.60;;;;;;5082884;28;20108;-63
2022/04/13 12:39:36;;;;;;;7.35;4.32;;;28.20;31.80;;;;;;5052905;28;20484;-64
2022/04/13 12:42:04;;;;;;;7.93;4.95;;;28.30;32.10;;;;;;5059062;28;20061;-65
2022/04/13 12:44:30;;;;;;;10.48;5.72;;;28.30;32.20;;;;;;5048787;28;20041;-64
2022/04/13 12:47:14;;;;;;;9.80;5.65;;;28.30;31.40;;;;;;5058866;28;20025;-64
2022/04/13 12:49:39;;;;;;;8.27;5.50;;;28.40;30.60;;;;;;5065311;28;20408;-64